Flight Track Log - Related Links

Times and Time Zones

All times are in EDT time to prevent confusion due to time zone crossing. See the DAL861 flight status page for this flight to view local times or setup timezone preferences in your user account.

Time Position Orientation Groundspeed Altitude Reporting Facility
EDT Latitude Longitude Course Direction KTS MPH feet Rate Location/Type
Mon 08:17:18 AM 46.8706 -96.7869 122° Southeast 171 197 2,700  Level Minneapolis Center
Mon 08:18:19 AM 46.8122 -96.7128 139° Southeast 267 307 5,000 2,656 Climbing Minneapolis Center
Mon 08:19:00 AM 46.7304 -96.4601 120° Southeast  Level Estimated
Mon 08:19:20 AM 46.7775 -96.6108 116° Southeast 289 333 8,100  Level Minneapolis Center
Mon 08:20:00 AM 46.6668 -96.3421 121° Southeast  Level Estimated
Mon 08:20:21 AM 46.7375 -96.4919 116° Southeast 307 353 10,800  Level Minneapolis Center
Mon 08:21:00 AM 46.6451 -96.1955 102° East  Level FlightAware Approximate
Mon 08:21:22 AM 46.6894 -96.3497 116° Southeast 377 434 12,200  Level Minneapolis Center
Mon 08:22:00 AM 46.5798 -96.0796 122° Southeast  Level Estimated
Mon 08:22:24 AM 46.6403 -96.2033 116° Southeast 418 481 14,200  Level Minneapolis Center
Mon 08:23:25 AM 46.5836 -96.0383 117° Southeast 435 501 16,700 2,410 Climbing Minneapolis Center
Mon 08:24:26 AM 46.5314 -95.8819 116° Southeast 445 512 19,100 1,967 Climbing Minneapolis Center
Mon 08:25:27 AM 46.4733 -95.7172 117° Southeast 453 521 20,700 1,721 Climbing Minneapolis Center
Mon 08:26:28 AM 46.4164 -95.5494 116° Southeast 478 550 22,600 1,610 Climbing Minneapolis Center
Mon 08:27:30 AM 46.3511 -95.3619 117° Southeast 486 559 24,000 1,171 Climbing Minneapolis Center
Mon 08:28:31 AM 46.2831 -95.1917 120° Southeast 491 565 25,000 492 Climbing Minneapolis Center
Mon 08:29:32 AM 46.2092 -95.0286 123° Southeast 491 565 25,000  Level Minneapolis Center
Mon 08:30:33 AM 46.1283 -94.8511 123° Southeast 489 563 25,000  Level Minneapolis Center
Mon 08:31:34 AM 46.0533 -94.6889 124° Southeast 489 563 25,000 -146 Level Minneapolis Center
Mon 08:32:36 AM 45.9789 -94.5269 123° Southeast 487 560 24,700 -1,171 Descending Minneapolis Center
Mon 08:33:37 AM 45.9058 -94.3678 123° Southeast 485 558 22,600 -2,164 Descending Minneapolis Center
Mon 08:34:38 AM 45.8356 -94.2167 124° Southeast 466 536 20,300 -2,311 Descending Minneapolis Center
Mon 08:35:39 AM 45.7675 -94.0722 124° Southeast 444 511 17,900 -2,488 Descending Minneapolis Center
Mon 08:36:41 AM 45.6903 -93.9072 124° Southeast 422 486 15,200 -1,415 Descending Minneapolis Center
Mon 08:37:42 AM 45.6264 -93.7728 124° Southeast 411 473 15,000 -934 Descending Minneapolis Center
Mon 08:38:43 AM 45.5622 -93.6383 124° Southeast 411 473 13,300 -1,707 Descending Minneapolis Center
Mon 08:39:45 AM 45.4789 -93.5519 144° Southeast 380 437 11,500 -1,268 Descending Minneapolis Center
Mon 08:40:46 AM 45.3922 -93.5047 159° South 334 384 10,700 -1,033 Descending Minneapolis Center
Mon 08:41:47 AM 45.3131 -93.4719 164° South 297 342 9,400 -1,512 Descending Minneapolis Center
Mon 08:42:49 AM 45.2339 -93.4653 177° South 287 330 7,600 -1,951 Descending Minneapolis Center
Mon 08:43:50 AM 45.1564 -93.4564 175° South 282 325 5,400 -1,574 Descending Minneapolis Center
Mon 08:44:51 AM 45.0839 -93.4478 175° South 265 305 4,400 -634 Descending Minneapolis Center
Mon 08:45:53 AM 45.0183 -93.4222 165° South 205 236 4,100 -293 Descending Minneapolis Center
Mon 08:46:54 AM 44.9778 -93.3725 139° Southeast 198 228 3,800 -537 Descending Minneapolis Center
Mon 08:47:56 AM 44.9464 -93.3306 137° Southeast 161 185 3,000 -780 Descending Minneapolis Center
Mon 08:48:57 AM 44.9242 -93.2931 130° Southeast 130 150 2,200 -738 Descending Minneapolis Center
Mon 08:49:58 AM 44.9058 -93.2500 121° Southeast 130 150 1,500 -689 Descending Minneapolis Center

Login

Don't have an account? Register now (free) for customized features, flight alerts, and more!